sensor_id;sensor_type;location;lat;lon;timestamp;temperature;humidity
29453;DHT22;16424;50.956;5.320;2022-10-01T00:00:54;12.50;99.90
29453;DHT22;16424;50.956;5.320;2022-10-01T00:03:26;12.40;99.90
29453;DHT22;16424;50.956;5.320;2022-10-01T00:06:15;12.40;99.90
29453;DHT22;16424;50.956;5.320;2022-10-01T00:08:43;12.40;99.90
29453;DHT22;16424;50.956;5.320;2022-10-01T00:11:22;12.40;99.90
29453;DHT22;16424;50.956;5.320;2022-10-01T00:13:48;12.40;99.90
29453;DHT22;16424;50.956;5.320;2022-10-01T00:16:21;12.30;99.90
29453;DHT22;16424;50.956;5.320;2022-10-01T00:18:48;12.20;99.90
29453;DHT22;16424;50.956;5.320;2022-10-01T00:21:19;12.20;99.90
29453;DHT22;16424;50.956;5.320;2022-10-01T00:23:46;12.30;99.90
29453;DHT22;16424;50.956;5.320;2022-10-01T00:26:17;12.20;99.90
29453;DHT22;16424;50.956;5.320;2022-10-01T00:28:46;12.20;99.90
29453;DHT22;16424;50.956;5.320;2022-10-01T00:31:13;12.20;99.90
29453;DHT22;16424;50.956;5.320;2022-10-01T00:33:39;12.20;99.90
29453;DHT22;16424;50.956;5.320;2022-10-01T00:36:06;12.30;99.90
29453;DHT22;16424;50.956;5.320;2022-10-01T00:38:33;12.20;99.90
29453;DHT22;16424;50.956;5.320;2022-10-01T00:40:59;12.20;99.90
29453;DHT22;16424;50.956;5.320;2022-10-01T00:43:30;12.20;99.90
29453;DHT22;16424;50.956;5.320;2022-10-01T00:49:00;12.10;99.90
29453;DHT22;16424;50.956;5.320;2022-10-01T00:51:33;12.00;99.90
29453;DHT22;16424;50.956;5.320;2022-10-01T00:55:04;12.00;99.90
29453;DHT22;16424;50.956;5.320;2022-10-01T00:57:24;12.10;99.90
29453;DHT22;16424;50.956;5.320;2022-10-01T00:59:53;12.20;99.90
29453;DHT22;16424;50.956;5.320;2022-10-01T01:02:21;12.00;99.90
29453;DHT22;16424;50.956;5.320;2022-10-01T01:04:47;12.00;99.90
29453;DHT22;16424;50.956;5.320;2022-10-01T01:07:13;12.10;99.90
29453;DHT22;16424;50.956;5.320;2022-10-01T01:09:43;12.20;99.90
29453;DHT22;16424;50.956;5.320;2022-10-01T01:12:31;12.10;99.90
29453;DHT22;16424;50.956;5.320;2022-10-01T01:15:28;12.20;99.90
29453;DHT22;16424;50.956;5.320;2022-10-01T01:18:12;12.20;99.90
29453;DHT22;16424;50.956;5.320;2022-10-01T01:23:51;12.20;99.90
29453;DHT22;16424;50.956;5.320;2022-10-01T01:26:35;12.20;99.90
29453;DHT22;16424;50.956;5.320;2022-10-01T01:29:11;12.20;99.90
29453;DHT22;16424;50.956;5.320;2022-10-01T01:31:41;12.20;99.90
29453;DHT22;16424;50.956;5.320;2022-10-01T01:34:13;12.20;99.90
29453;DHT22;16424;50.956;5.320;2022-10-01T01:36:44;12.20;99.90
29453;DHT22;16424;50.956;5.320;2022-10-01T01:39:13;12.10;99.90
29453;DHT22;16424;50.956;5.320;2022-10-01T01:41:45;12.10;99.90
29453;DHT22;16424;50.956;5.320;2022-10-01T01:44:15;12.20;99.90
29453;DHT22;16424;50.956;5.320;2022-10-01T01:46:44;11.90;99.90
29453;DHT22;16424;50.956;5.320;2022-10-01T01:49:12;11.90;99.90
29453;DHT22;16424;50.956;5.320;2022-10-01T01:51:48;12.00;99.90
29453;DHT22;16424;50.956;5.320;2022-10-01T01:54:17;12.00;99.90
29453;DHT22;16424;50.956;5.320;2022-10-01T01:56:43;12.00;99.90
29453;DHT22;16424;50.956;5.320;2022-10-01T01:59:09;11.90;99.90
29453;DHT22;16424;50.956;5.320;2022-10-01T02:01:41;11.90;99.90
29453;DHT22;16424;50.956;5.320;2022-10-01T02:04:27;11.90;99.90
29453;DHT22;16424;50.956;5.320;2022-10-01T02:12:14;12.00;99.90
29453;DHT22;16424;50.956;5.320;2022-10-01T02:14:52;12.00;99.90
29453;DHT22;16424;50.956;5.320;2022-10-01T02:17:48;12.00;99.90
29453;DHT22;16424;50.956;5.320;2022-10-01T02:20:30;12.00;99.90
29453;DHT22;16424;50.956;5.320;2022-10-01T02:23:05;12.10;99.90
29453;DHT22;16424;50.956;5.320;2022-10-01T02:25:39;12.10;99.90
29453;DHT22;16424;50.956;5.320;2022-10-01T02:28:11;12.20;99.90
29453;DHT22;16424;50.956;5.320;2022-10-01T02:30:41;12.20;99.90
29453;DHT22;16424;50.956;5.320;2022-10-01T02:33:10;12.10;99.90
29453;DHT22;16424;50.956;5.320;2022-10-01T02:35:40;12.10;99.90
29453;DHT22;16424;50.956;5.320;2022-10-01T02:38:08;12.00;99.90
29453;DHT22;16424;50.956;5.320;2022-10-01T02:40:38;12.00;99.90
29453;DHT22;16424;50.956;5.320;2022-10-01T02:43:09;11.90;99.90
29453;DHT22;16424;50.956;5.320;2022-10-01T02:45:39;12.00;99.90
29453;DHT22;16424;50.956;5.320;2022-10-01T02:48:08;12.00;99.90
29453;DHT22;16424;50.956;5.320;2022-10-01T02:50:46;12.00;99.90
29453;DHT22;16424;50.956;5.320;2022-10-01T02:53:25;12.00;99.90
29453;DHT22;16424;50.956;5.320;2022-10-01T02:55:53;12.00;99.90
29453;DHT22;16424;50.956;5.320;2022-10-01T02:58:20;12.00;99.90
29453;DHT22;16424;50.956;5.320;2022-10-01T03:00:46;12.00;99.90
29453;DHT22;16424;50.956;5.320;2022-10-01T03:03:11;11.90;99.90
29453;DHT22;16424;50.956;5.320;2022-10-01T03:05:37;11.80;99.90
29453;DHT22;16424;50.956;5.320;2022-10-01T03:08:02;11.80;99.90
29453;DHT22;16424;50.956;5.320;2022-10-01T03:10:28;11.80;99.90
29453;DHT22;16424;50.956;5.320;2022-10-01T03:12:54;11.80;99.90
29453;DHT22;16424;50.956;5.320;2022-10-01T03:15:20;11.90;99.90
29453;DHT22;16424;50.956;5.320;2022-10-01T03:17:52;11.90;99.90
29453;DHT22;16424;50.956;5.320;2022-10-01T03:20:18;11.90;99.90
29453;DHT22;16424;50.956;5.320;2022-10-01T03:22:45;11.90;99.90
29453;DHT22;16424;50.956;5.320;2022-10-01T03:25:12;12.00;99.90
29453;DHT22;16424;50.956;5.320;2022-10-01T03:27:37;12.00;99.90
29453;DHT22;16424;50.956;5.320;2022-10-01T03:30:03;12.00;99.90
29453;DHT22;16424;50.956;5.320;2022-10-01T03:32:30;12.10;99.90
29453;DHT22;16424;50.956;5.320;2022-10-01T03:34:57;12.10;99.90
29453;DHT22;16424;50.956;5.320;2022-10-01T03:37:23;12.10;99.90
29453;DHT22;16424;50.956;5.320;2022-10-01T03:39:49;12.20;99.90
29453;DHT22;16424;50.956;5.320;2022-10-01T03:42:14;12.20;99.90
29453;DHT22;16424;50.956;5.320;2022-10-01T03:44:41;12.20;99.90
29453;DHT22;16424;50.956;5.320;2022-10-01T03:47:07;12.20;99.90
29453;DHT22;16424;50.956;5.320;2022-10-01T03:49:34;12.20;99.90
29453;DHT22;16424;50.956;5.320;2022-10-01T03:52:01;12.20;99.90
29453;DHT22;16424;50.956;5.320;2022-10-01T03:54:27;12.20;99.90
29453;DHT22;16424;50.956;5.320;2022-10-01T03:56:54;12.40;99.90
29453;DHT22;16424;50.956;5.320;2022-10-01T03:59:20;12.20;99.90
29453;DHT22;16424;50.956;5.320;2022-10-01T04:01:46;12.30;99.90
29453;DHT22;16424;50.956;5.320;2022-10-01T04:04:12;12.30;99.90
29453;DHT22;16424;50.956;5.320;2022-10-01T04:06:39;12.50;99.90
29453;DHT22;16424;50.956;5.320;2022-10-01T04:09:05;12.30;99.90
29453;DHT22;16424;50.956;5.320;2022-10-01T04:11:31;12.40;99.90
29453;DHT22;16424;50.956;5.320;2022-10-01T04:13:56;12.30;99.90
29453;DHT22;16424;50.956;5.320;2022-10-01T04:16:23;12.40;99.90
29453;DHT22;16424;50.956;5.320;2022-10-01T04:18:49;12.40;99.90
29453;DHT22;16424;50.956;5.320;2022-10-01T04:21:16;12.40;99.90
29453;DHT22;16424;50.956;5.320;2022-10-01T04:23:41;12.50;99.90
29453;DHT22;16424;50.956;5.320;2022-10-01T04:26:07;12.50;99.90
29453;DHT22;16424;50.956;5.320;2022-10-01T04:28:33;12.50;99.90
29453;DHT22;16424;50.956;5.320;2022-10-01T04:30:59;12.50;99.90
29453;DHT22;16424;50.956;5.320;2022-10-01T04:33:43;12.60;99.90
29453;DHT22;16424;50.956;5.320;2022-10-01T04:36:09;12.50;99.90
29453;DHT22;16424;50.956;5.320;2022-10-01T04:38:35;12.50;99.90
29453;DHT22;16424;50.956;5.320;2022-10-01T04:41:01;12.60;99.90
29453;DHT22;16424;50.956;5.320;2022-10-01T04:43:27;12.60;99.90
29453;DHT22;16424;50.956;5.320;2022-10-01T04:45:52;12.70;99.90
29453;DHT22;16424;50.956;5.320;2022-10-01T04:48:18;12.70;99.90
29453;DHT22;16424;50.956;5.320;2022-10-01T04:50:44;12.70;99.90
29453;DHT22;16424;50.956;5.320;2022-10-01T04:53:09;12.80;99.90
29453;DHT22;16424;50.956;5.320;2022-10-01T04:55:35;12.80;99.90
29453;DHT22;16424;50.956;5.320;2022-10-01T04:58:01;12.80;99.90
29453;DHT22;16424;50.956;5.320;2022-10-01T05:00:27;12.80;99.90
29453;DHT22;16424;50.956;5.320;2022-10-01T05:02:53;12.90;99.90
29453;DHT22;16424;50.956;5.320;2022-10-01T05:05:21;13.00;99.90
29453;DHT22;16424;50.956;5.320;2022-10-01T05:07:47;13.00;99.90
29453;DHT22;16424;50.956;5.320;2022-10-01T05:10:18;13.00;99.90
29453;DHT22;16424;50.956;5.320;2022-10-01T05:12:44;13.00;99.90
29453;DHT22;16424;50.956;5.320;2022-10-01T05:15:14;13.10;99.90
29453;DHT22;16424;50.956;5.320;2022-10-01T05:17:39;13.00;99.90
29453;DHT22;16424;50.956;5.320;2022-10-01T05:20:06;13.00;99.90
29453;DHT22;16424;50.956;5.320;2022-10-01T05:22:32;13.10;99.90
29453;DHT22;16424;50.956;5.320;2022-10-01T05:24:59;13.10;99.90
29453;DHT22;16424;50.956;5.320;2022-10-01T05:27:27;13.20;99.90
29453;DHT22;16424;50.956;5.320;2022-10-01T05:29:54;13.30;99.90
29453;DHT22;16424;50.956;5.320;2022-10-01T05:32:21;13.30;99.90
29453;DHT22;16424;50.956;5.320;2022-10-01T05:34:47;13.30;99.90
29453;DHT22;16424;50.956;5.320;2022-10-01T05:37:13;13.30;99.90
29453;DHT22;16424;50.956;5.320;2022-10-01T05:39:39;13.30;99.90
29453;DHT22;16424;50.956;5.320;2022-10-01T05:42:05;13.30;99.90
29453;DHT22;16424;50.956;5.320;2022-10-01T05:44:30;13.30;99.90
29453;DHT22;16424;50.956;5.320;2022-10-01T05:47:03;13.30;99.90
29453;DHT22;16424;50.956;5.320;2022-10-01T05:49:30;13.40;99.90
29453;DHT22;16424;50.956;5.320;2022-10-01T05:51:55;13.30;99.90
29453;DHT22;16424;50.956;5.320;2022-10-01T05:54:21;13.40;99.90
29453;DHT22;16424;50.956;5.320;2022-10-01T05:56:49;13.40;99.90
29453;DHT22;16424;50.956;5.320;2022-10-01T05:59:15;13.40;99.90
29453;DHT22;16424;50.956;5.320;2022-10-01T06:01:41;13.40;99.90
29453;DHT22;16424;50.956;5.320;2022-10-01T06:04:08;13.40;99.90
29453;DHT22;16424;50.956;5.320;2022-10-01T06:06:34;13.50;99.90
29453;DHT22;16424;50.956;5.320;2022-10-01T06:09:00;13.60;99.90
29453;DHT22;16424;50.956;5.320;2022-10-01T06:11:25;13.70;99.90
29453;DHT22;16424;50.956;5.320;2022-10-01T06:13:51;13.70;99.90
29453;DHT22;16424;50.956;5.320;2022-10-01T06:16:17;13.70;99.90
29453;DHT22;16424;50.956;5.320;2022-10-01T06:18:46;13.70;99.90
29453;DHT22;16424;50.956;5.320;2022-10-01T06:21:12;13.70;99.90
29453;DHT22;16424;50.956;5.320;2022-10-01T06:23:38;13.80;99.90
29453;DHT22;16424;50.956;5.320;2022-10-01T06:26:04;13.70;99.90
29453;DHT22;16424;50.956;5.320;2022-10-01T06:28:30;13.80;99.90
29453;DHT22;16424;50.956;5.320;2022-10-01T06:30:56;13.80;99.90
29453;DHT22;16424;50.956;5.320;2022-10-01T06:33:25;13.80;99.90
29453;DHT22;16424;50.956;5.320;2022-10-01T06:35:51;13.90;99.90
29453;DHT22;16424;50.956;5.320;2022-10-01T06:38:18;14.00;99.90
29453;DHT22;16424;50.956;5.320;2022-10-01T06:40:53;14.10;99.90
29453;DHT22;16424;50.956;5.320;2022-10-01T06:43:19;14.10;99.90
29453;DHT22;16424;50.956;5.320;2022-10-01T06:45:45;14.10;99.90
29453;DHT22;16424;50.956;5.320;2022-10-01T06:48:15;14.10;99.90
29453;DHT22;16424;50.956;5.320;2022-10-01T06:50:42;14.20;99.90
29453;DHT22;16424;50.956;5.320;2022-10-01T06:53:09;14.30;99.90
29453;DHT22;16424;50.956;5.320;2022-10-01T06:55:36;14.30;99.90
29453;DHT22;16424;50.956;5.320;2022-10-01T06:58:13;14.30;99.90
29453;DHT22;16424;50.956;5.320;2022-10-01T07:00:39;14.30;99.90
29453;DHT22;16424;50.956;5.320;2022-10-01T07:03:07;14.30;99.90
29453;DHT22;16424;50.956;5.320;2022-10-01T07:05:36;14.40;99.90
29453;DHT22;16424;50.956;5.320;2022-10-01T07:08:03;14.60;99.90
29453;DHT22;16424;50.956;5.320;2022-10-01T07:10:28;14.60;99.90
29453;DHT22;16424;50.956;5.320;2022-10-01T07:12:54;14.50;99.90
29453;DHT22;16424;50.956;5.320;2022-10-01T07:15:21;14.60;99.90
29453;DHT22;16424;50.956;5.320;2022-10-01T07:17:51;14.60;99.90
29453;DHT22;16424;50.956;5.320;2022-10-01T07:20:18;14.70;99.90
29453;DHT22;16424;50.956;5.320;2022-10-01T07:22:46;14.60;99.90
29453;DHT22;16424;50.956;5.320;2022-10-01T07:25:12;14.70;99.90
29453;DHT22;16424;50.956;5.320;2022-10-01T07:27:38;14.70;99.90
29453;DHT22;16424;50.956;5.320;2022-10-01T07:30:05;14.60;99.90
29453;DHT22;16424;50.956;5.320;2022-10-01T07:32:31;14.70;99.90
29453;DHT22;16424;50.956;5.320;2022-10-01T07:34:57;14.60;99.90
29453;DHT22;16424;50.956;5.320;2022-10-01T07:37:23;14.70;99.90
29453;DHT22;16424;50.956;5.320;2022-10-01T07:39:49;14.70;99.90
29453;DHT22;16424;50.956;5.320;2022-10-01T07:42:15;14.80;99.90
29453;DHT22;16424;50.956;5.320;2022-10-01T07:44:40;14.80;99.90
29453;DHT22;16424;50.956;5.320;2022-10-01T07:47:07;14.90;99.90
29453;DHT22;16424;50.956;5.320;2022-10-01T07:49:32;15.00;99.90
29453;DHT22;16424;50.956;5.320;2022-10-01T07:51:58;15.20;99.90
29453;DHT22;16424;50.956;5.320;2022-10-01T07:54:24;15.40;99.90
29453;DHT22;16424;50.956;5.320;2022-10-01T07:56:51;15.80;99.90
29453;DHT22;16424;50.956;5.320;2022-10-01T07:59:21;16.40;99.90
29453;DHT22;16424;50.956;5.320;2022-10-01T08:01:50;16.80;99.90
29453;DHT22;16424;50.956;5.320;2022-10-01T08:04:17;17.30;99.90
29453;DHT22;16424;50.956;5.320;2022-10-01T08:07:01;18.20;99.90
29453;DHT22;16424;50.956;5.320;2022-10-01T08:09:27;19.00;99.90
29453;DHT22;16424;50.956;5.320;2022-10-01T08:11:53;19.20;99.90
29453;DHT22;16424;50.956;5.320;2022-10-01T08:14:18;19.30;99.90
29453;DHT22;16424;50.956;5.320;2022-10-01T08:16:44;18.90;99.90
29453;DHT22;16424;50.956;5.320;2022-10-01T08:19:10;18.00;99.90
29453;DHT22;16424;50.956;5.320;2022-10-01T08:21:37;18.00;99.90
29453;DHT22;16424;50.956;5.320;2022-10-01T08:24:04;17.80;99.90
29453;DHT22;16424;50.956;5.320;2022-10-01T08:26:30;17.70;99.90
29453;DHT22;16424;50.956;5.320;2022-10-01T08:28:56;17.70;99.90
29453;DHT22;16424;50.956;5.320;2022-10-01T08:31:22;17.60;99.90
29453;DHT22;16424;50.956;5.320;2022-10-01T08:33:48;17.60;99.90
29453;DHT22;16424;50.956;5.320;2022-10-01T08:36:15;17.60;99.90
29453;DHT22;16424;50.956;5.320;2022-10-01T08:38:44;17.70;99.90
29453;DHT22;16424;50.956;5.320;2022-10-01T08:44:05;17.80;99.90
29453;DHT22;16424;50.956;5.320;2022-10-01T08:46:34;18.40;99.90
29453;DHT22;16424;50.956;5.320;2022-10-01T08:49:19;18.90;99.90
29453;DHT22;16424;50.956;5.320;2022-10-01T08:51:54;18.50;99.90
29453;DHT22;16424;50.956;5.320;2022-10-01T08:54:41;18.60;99.90
29453;DHT22;16424;50.956;5.320;2022-10-01T08:57:16;18.60;99.90
29453;DHT22;16424;50.956;5.320;2022-10-01T08:59:48;18.40;99.90
29453;DHT22;16424;50.956;5.320;2022-10-01T09:02:31;18.30;99.90
29453;DHT22;16424;50.956;5.320;2022-10-01T09:05:03;17.90;99.90
29453;DHT22;16424;50.956;5.320;2022-10-01T09:07:38;18.10;99.90
29453;DHT22;16424;50.956;5.320;2022-10-01T09:20:57;18.80;99.90
29453;DHT22;16424;50.956;5.320;2022-10-01T09:23:31;18.80;99.90
29453;DHT22;16424;50.956;5.320;2022-10-01T09:25:59;18.60;99.90
29453;DHT22;16424;50.956;5.320;2022-10-01T09:28:28;18.40;99.90
29453;DHT22;16424;50.956;5.320;2022-10-01T09:33:38;18.10;99.90
29453;DHT22;16424;50.956;5.320;2022-10-01T09:36:16;17.80;99.90
29453;DHT22;16424;50.956;5.320;2022-10-01T09:38:56;18.10;99.90
29453;DHT22;16424;50.956;5.320;2022-10-01T09:41:25;18.30;99.90
29453;DHT22;16424;50.956;5.320;2022-10-01T09:43:50;18.30;99.90
29453;DHT22;16424;50.956;5.320;2022-10-01T09:46:16;18.20;99.90
29453;DHT22;16424;50.956;5.320;2022-10-01T09:48:58;18.20;99.90
29453;DHT22;16424;50.956;5.320;2022-10-01T09:51:33;18.20;99.90
29453;DHT22;16424;50.956;5.320;2022-10-01T09:54:14;18.30;99.90
29453;DHT22;16424;50.956;5.320;2022-10-01T09:56:43;18.10;99.90
29453;DHT22;16424;50.956;5.320;2022-10-01T09:59:17;18.00;99.90
29453;DHT22;16424;50.956;5.320;2022-10-01T10:01:53;18.20;99.90
29453;DHT22;16424;50.956;5.320;2022-10-01T10:04:21;18.20;99.90
29453;DHT22;16424;50.956;5.320;2022-10-01T10:06:58;18.50;99.90
29453;DHT22;16424;50.956;5.320;2022-10-01T10:09:30;18.70;99.90
29453;DHT22;16424;50.956;5.320;2022-10-01T10:11:57;18.90;99.90
29453;DHT22;16424;50.956;5.320;2022-10-01T10:14:36;19.10;99.90
29453;DHT22;16424;50.956;5.320;2022-10-01T10:17:04;19.30;99.90
29453;DHT22;16424;50.956;5.320;2022-10-01T10:19:32;19.20;99.90
29453;DHT22;16424;50.956;5.320;2022-10-01T10:22:11;19.20;99.90
29453;DHT22;16424;50.956;5.320;2022-10-01T10:24:37;19.00;99.90
29453;DHT22;16424;50.956;5.320;2022-10-01T10:27:06;18.90;99.90
29453;DHT22;16424;50.956;5.320;2022-10-01T10:29:43;18.90;99.90
29453;DHT22;16424;50.956;5.320;2022-10-01T10:32:24;18.60;99.90
29453;DHT22;16424;50.956;5.320;2022-10-01T10:34:51;18.40;99.90
29453;DHT22;16424;50.956;5.320;2022-10-01T10:37:24;18.40;99.90
29453;DHT22;16424;50.956;5.320;2022-10-01T10:39:52;18.70;99.90
29453;DHT22;16424;50.956;5.320;2022-10-01T10:42:18;18.70;99.90
29453;DHT22;16424;50.956;5.320;2022-10-01T10:44:48;18.80;99.90
29453;DHT22;16424;50.956;5.320;2022-10-01T10:47:15;19.00;99.90
29453;DHT22;16424;50.956;5.320;2022-10-01T10:52:28;19.10;99.90
29453;DHT22;16424;50.956;5.320;2022-10-01T10:54:55;19.10;99.90
29453;DHT22;16424;50.956;5.320;2022-10-01T10:57:33;18.90;99.90
29453;DHT22;16424;50.956;5.320;2022-10-01T11:00:18;18.90;99.90
29453;DHT22;16424;50.956;5.320;2022-10-01T11:05:17;19.00;99.90
29453;DHT22;16424;50.956;5.320;2022-10-01T11:07:44;19.00;99.90
29453;DHT22;16424;50.956;5.320;2022-10-01T11:10:33;19.10;99.90
29453;DHT22;16424;50.956;5.320;2022-10-01T11:16:16;19.10;99.90
29453;DHT22;16424;50.956;5.320;2022-10-01T11:30:06;19.30;99.90
29453;DHT22;16424;50.956;5.320;2022-10-01T11:32:52;19.20;99.90
29453;DHT22;16424;50.956;5.320;2022-10-01T11:35:46;19.40;99.90
29453;DHT22;16424;50.956;5.320;2022-10-01T11:43:54;19.60;99.90
29453;DHT22;16424;50.956;5.320;2022-10-01T11:57:22;19.30;99.90
29453;DHT22;16424;50.956;5.320;2022-10-01T12:00:08;19.50;99.90
29453;DHT22;16424;50.956;5.320;2022-10-01T12:02:40;19.50;99.90
29453;DHT22;16424;50.956;5.320;2022-10-01T12:05:09;19.50;99.90
29453;DHT22;16424;50.956;5.320;2022-10-01T12:13:30;19.30;99.90
29453;DHT22;16424;50.956;5.320;2022-10-01T12:16:14;19.50;99.90
29453;DHT22;16424;50.956;5.320;2022-10-01T12:19:02;19.60;99.90
29453;DHT22;16424;50.956;5.320;2022-10-01T12:21:36;19.70;99.90
29453;DHT22;16424;50.956;5.320;2022-10-01T12:24:14;20.00;99.90
29453;DHT22;16424;50.956;5.320;2022-10-01T12:30:19;20.30;99.90
29453;DHT22;16424;50.956;5.320;2022-10-01T12:38:39;20.40;99.90
29453;DHT22;16424;50.956;5.320;2022-10-01T12:44:26;20.10;99.90
29453;DHT22;16424;50.956;5.320;2022-10-01T12:47:14;19.90;99.90
29453;DHT22;16424;50.956;5.320;2022-10-01T12:55:37;20.10;99.90
29453;DHT22;16424;50.956;5.320;2022-10-01T12:58:19;20.40;99.90
29453;DHT22;16424;50.956;5.320;2022-10-01T13:14:13;20.60;99.90
29453;DHT22;16424;50.956;5.320;2022-10-01T13:16:55;20.30;99.90
29453;DHT22;16424;50.956;5.320;2022-10-01T13:19:33;20.20;99.90
29453;DHT22;16424;50.956;5.320;2022-10-01T13:22:16;19.90;99.90
29453;DHT22;16424;50.956;5.320;2022-10-01T13:27:39;19.60;99.90
29453;DHT22;16424;50.956;5.320;2022-10-01T13:30:19;19.80;99.90
29453;DHT22;16424;50.956;5.320;2022-10-01T13:35:22;19.70;99.90
29453;DHT22;16424;50.956;5.320;2022-10-01T13:37:49;19.70;99.90
29453;DHT22;16424;50.956;5.320;2022-10-01T13:40:32;19.70;99.90
29453;DHT22;16424;50.956;5.320;2022-10-01T13:43:02;19.40;99.90
29453;DHT22;16424;50.956;5.320;2022-10-01T13:45:38;19.30;99.90
29453;DHT22;16424;50.956;5.320;2022-10-01T13:48:26;19.10;99.90
29453;DHT22;16424;50.956;5.320;2022-10-01T13:51:01;19.20;99.90
29453;DHT22;16424;50.956;5.320;2022-10-01T13:53:30;19.20;99.90
29453;DHT22;16424;50.956;5.320;2022-10-01T13:55:57;19.20;99.90
29453;DHT22;16424;50.956;5.320;2022-10-01T14:00:57;19.30;99.90
29453;DHT22;16424;50.956;5.320;2022-10-01T14:03:36;19.50;99.90
29453;DHT22;16424;50.956;5.320;2022-10-01T14:06:05;19.60;99.90
29453;DHT22;16424;50.956;5.320;2022-10-01T14:11:16;19.90;99.90
29453;DHT22;16424;50.956;5.320;2022-10-01T14:14:11;19.90;99.90
29453;DHT22;16424;50.956;5.320;2022-10-01T14:16:56;20.10;99.90
29453;DHT22;16424;50.956;5.320;2022-10-01T14:19:25;20.30;99.90
29453;DHT22;16424;50.956;5.320;2022-10-01T14:25:02;20.60;99.90
29453;DHT22;16424;50.956;5.320;2022-10-01T14:31:11;20.80;99.90
29453;DHT22;16424;50.956;5.320;2022-10-01T14:36:29;20.60;99.90
29453;DHT22;16424;50.956;5.320;2022-10-01T14:39:28;20.50;99.90
29453;DHT22;16424;50.956;5.320;2022-10-01T14:41:55;20.20;99.90
29453;DHT22;16424;50.956;5.320;2022-10-01T14:44:38;20.00;99.90
29453;DHT22;16424;50.956;5.320;2022-10-01T14:47:31;19.80;99.90
29453;DHT22;16424;50.956;5.320;2022-10-01T14:50:08;19.30;99.90
29453;DHT22;16424;50.956;5.320;2022-10-01T14:52:35;19.30;99.90
29453;DHT22;16424;50.956;5.320;2022-10-01T14:55:10;19.30;99.90
29453;DHT22;16424;50.956;5.320;2022-10-01T14:57:47;19.30;99.90
29453;DHT22;16424;50.956;5.320;2022-10-01T15:00:20;19.40;99.90
29453;DHT22;16424;50.956;5.320;2022-10-01T15:03:09;19.40;99.90
29453;DHT22;16424;50.956;5.320;2022-10-01T15:05:37;19.70;99.90
29453;DHT22;16424;50.956;5.320;2022-10-01T15:08:13;19.90;99.90
29453;DHT22;16424;50.956;5.320;2022-10-01T15:10:44;19.90;99.90
29453;DHT22;16424;50.956;5.320;2022-10-01T15:13:21;20.10;99.90
29453;DHT22;16424;50.956;5.320;2022-10-01T15:15:48;20.30;99.90
29453;DHT22;16424;50.956;5.320;2022-10-01T15:18:16;20.50;99.90
29453;DHT22;16424;50.956;5.320;2022-10-01T15:20:53;20.30;99.90
29453;DHT22;16424;50.956;5.320;2022-10-01T15:23:22;20.40;99.90
29453;DHT22;16424;50.956;5.320;2022-10-01T15:25:49;20.30;99.90
29453;DHT22;16424;50.956;5.320;2022-10-01T15:28:38;20.20;99.90
29453;DHT22;16424;50.956;5.320;2022-10-01T15:31:05;19.90;99.90
29453;DHT22;16424;50.956;5.320;2022-10-01T15:33:36;19.80;99.90
29453;DHT22;16424;50.956;5.320;2022-10-01T15:36:11;19.90;99.90
29453;DHT22;16424;50.956;5.320;2022-10-01T15:38:37;20.00;99.90
29453;DHT22;16424;50.956;5.320;2022-10-01T15:41:06;19.90;99.90
29453;DHT22;16424;50.956;5.320;2022-10-01T15:43:36;20.00;99.90
29453;DHT22;16424;50.956;5.320;2022-10-01T15:49:19;20.00;99.90
29453;DHT22;16424;50.956;5.320;2022-10-01T15:52:02;19.90;99.90
29453;DHT22;16424;50.956;5.320;2022-10-01T15:54:56;19.90;99.90
29453;DHT22;16424;50.956;5.320;2022-10-01T15:57:24;19.60;99.90
29453;DHT22;16424;50.956;5.320;2022-10-01T15:59:53;19.50;99.90
29453;DHT22;16424;50.956;5.320;2022-10-01T16:02:24;19.20;99.90
29453;DHT22;16424;50.956;5.320;2022-10-01T16:04:51;19.10;99.90
29453;DHT22;16424;50.956;5.320;2022-10-01T16:07:26;19.10;99.90
29453;DHT22;16424;50.956;5.320;2022-10-01T16:09:58;18.90;99.90
29453;DHT22;16424;50.956;5.320;2022-10-01T16:12:26;18.70;99.90
29453;DHT22;16424;50.956;5.320;2022-10-01T16:14:56;18.60;99.90
29453;DHT22;16424;50.956;5.320;2022-10-01T16:17:34;18.60;99.90
29453;DHT22;16424;50.956;5.320;2022-10-01T16:22:38;18.50;99.90
29453;DHT22;16424;50.956;5.320;2022-10-01T16:25:29;18.50;99.90
29453;DHT22;16424;50.956;5.320;2022-10-01T16:28:04;18.60;99.90
29453;DHT22;16424;50.956;5.320;2022-10-01T16:30:31;18.50;99.90
29453;DHT22;16424;50.956;5.320;2022-10-01T16:33:00;18.40;99.90
29453;DHT22;16424;50.956;5.320;2022-10-01T16:35:27;18.40;99.90
29453;DHT22;16424;50.956;5.320;2022-10-01T16:37:55;18.50;99.90
29453;DHT22;16424;50.956;5.320;2022-10-01T16:40:32;18.40;99.90
29453;DHT22;16424;50.956;5.320;2022-10-01T16:43:02;18.30;99.90
29453;DHT22;16424;50.956;5.320;2022-10-01T16:45:37;18.20;99.90
29453;DHT22;16424;50.956;5.320;2022-10-01T16:48:29;18.20;99.90
29453;DHT22;16424;50.956;5.320;2022-10-01T16:50:55;18.30;99.90
29453;DHT22;16424;50.956;5.320;2022-10-01T16:53:24;18.20;99.90
29453;DHT22;16424;50.956;5.320;2022-10-01T16:55:51;18.10;99.90
29453;DHT22;16424;50.956;5.320;2022-10-01T16:58:17;18.10;99.90
29453;DHT22;16424;50.956;5.320;2022-10-01T17:00:44;18.20;99.90
29453;DHT22;16424;50.956;5.320;2022-10-01T17:03:18;18.10;99.90
29453;DHT22;16424;50.956;5.320;2022-10-01T17:05:45;18.10;99.90
29453;DHT22;16424;50.956;5.320;2022-10-01T17:08:11;17.90;99.90
29453;DHT22;16424;50.956;5.320;2022-10-01T17:10:42;17.80;99.90
29453;DHT22;16424;50.956;5.320;2022-10-01T17:13:11;17.70;99.90
29453;DHT22;16424;50.956;5.320;2022-10-01T17:15:37;17.80;99.90
29453;DHT22;16424;50.956;5.320;2022-10-01T17:18:02;17.80;99.90
29453;DHT22;16424;50.956;5.320;2022-10-01T17:20:29;17.70;99.90
29453;DHT22;16424;50.956;5.320;2022-10-01T17:22:55;17.60;99.90
29453;DHT22;16424;50.956;5.320;2022-10-01T17:25:24;17.50;99.90
29453;DHT22;16424;50.956;5.320;2022-10-01T17:27:51;17.40;99.90
29453;DHT22;16424;50.956;5.320;2022-10-01T17:30:16;17.30;99.90
29453;DHT22;16424;50.956;5.320;2022-10-01T17:32:42;17.20;99.90
29453;DHT22;16424;50.956;5.320;2022-10-01T17:35:09;17.10;99.90
29453;DHT22;16424;50.956;5.320;2022-10-01T17:37:35;17.10;99.90
29453;DHT22;16424;50.956;5.320;2022-10-01T17:40:02;17.00;99.90
29453;DHT22;16424;50.956;5.320;2022-10-01T17:42:28;17.00;99.90
29453;DHT22;16424;50.956;5.320;2022-10-01T17:44:57;16.90;99.90
29453;DHT22;16424;50.956;5.320;2022-10-01T17:47:23;16.90;99.90
29453;DHT22;16424;50.956;5.320;2022-10-01T17:49:48;16.90;99.90
29453;DHT22;16424;50.956;5.320;2022-10-01T17:52:14;16.90;99.90
29453;DHT22;16424;50.956;5.320;2022-10-01T17:54:40;16.80;99.90
29453;DHT22;16424;50.956;5.320;2022-10-01T17:57:05;16.70;99.90
29453;DHT22;16424;50.956;5.320;2022-10-01T17:59:35;16.60;99.90